Time,TemperatureF,DewpointF,PressureIn,WindDirection,WindDirectionDegrees,WindSpeedMPH,WindSpeedGustMPH,Humidity,HourlyPrecipIn,Conditions,Clouds,dailyrainin,SoftwareType,DateUTC
2013-08-25 00:00:00,73.3,66.5,30.03,East,90,1.4,1.6,78,-99.99,,,-99.99,tws,2013-08-25 07:00:00,
2013-08-25 00:10:00,73.3,66.7,30.02,North,0,1.4,2.1,79,-99.99,,,-99.99,tws,2013-08-25 07:10:00,
2013-08-25 00:20:00,73.4,66.5,30.02,East,90,0.5,1.5,78,-99.99,,,-99.99,tws,2013-08-25 07:20:00,
2013-08-25 00:30:00,73.4,66.5,30.03,SSE,157,1.7,2.5,78,-99.99,,,-99.99,tws,2013-08-25 07:30:00,
2013-08-25 00:40:00,73.5,66.4,30.03,NE,45,1.5,2.1,78,-99.99,,,-99.99,tws,2013-08-25 07:40:00,
2013-08-25 00:50:00,73.5,66.4,30.02,East,90,2.3,3.6,78,-99.99,,,-99.99,tws,2013-08-25 07:50:00,
2013-08-25 01:00:00,73.5,66.7,30.01,ENE,67,2.1,2.8,78,-99.99,,,-99.99,tws,2013-08-25 08:00:00,
2013-08-25 01:10:00,73.6,66.9,30.01,NNW,337,1.0,1.9,79,-99.99,,,-99.99,tws,2013-08-25 08:10:00,
2013-08-25 01:20:00,73.7,67.1,30.01,East,90,0.5,1.6,79,-99.99,,,-99.99,tws,2013-08-25 08:20:00,
2013-08-25 01:30:00,73.8,67.4,30.02,NNE,22,1.6,2.1,80,-99.99,,,-99.99,tws,2013-08-25 08:30:00,
2013-08-25 01:40:00,73.7,67.3,30.02,East,90,1.6,2.1,80,-99.99,,,-99.99,tws,2013-08-25 08:40:00,
2013-08-25 01:50:00,73.6,67.5,30.02,South,180,0.6,2.5,80,-99.99,,,-99.99,tws,2013-08-25 08:50:00,
2013-08-25 02:00:00,73.6,67.3,30.01,SW,225,0.9,2.4,80,-99.99,,,-99.99,tws,2013-08-25 09:00:00,
2013-08-25 02:10:00,73.5,67.0,30.01,SE,135,0.9,1.7,79,-99.99,,,-99.99,tws,2013-08-25 09:10:00,
2013-08-25 02:20:00,73.5,66.8,30.02,NE,45,1.8,2.7,79,-99.99,,,-99.99,tws,2013-08-25 09:20:00,
2013-08-25 02:30:00,73.5,66.8,30.03,NE,45,2.3,3.5,79,-99.99,,,-99.99,tws,2013-08-25 09:30:00,
2013-08-25 02:40:00,73.5,67.1,30.03,East,90,2.9,5.6,79,-99.99,,,-99.99,tws,2013-08-25 09:40:00,
2013-08-25 02:50:00,73.5,67.1,30.03,ENE,67,2.0,2.8,79,-99.99,,,-99.99,tws,2013-08-25 09:50:00,
2013-08-25 03:00:00,73.6,66.9,30.02,NW,315,1.0,1.8,79,-99.99,,,-99.99,tws,2013-08-25 10:00:00,
2013-08-25 03:10:00,73.6,67.1,30.01,NW,315,1.1,2.1,79,-99.99,,,-99.99,tws,2013-08-25 10:10:00,
2013-08-25 03:20:00,73.7,67.4,30.01,NE,45,1.9,2.3,80,-99.99,,,-99.99,tws,2013-08-25 10:20:00,
2013-08-25 03:30:00,73.7,67.7,30.01,East,90,1.8,2.2,81,-99.99,,,-99.99,tws,2013-08-25 10:30:00,
2013-08-25 03:40:00,73.6,67.9,30.02,NE,45,1.9,2.4,82,-99.99,,,-99.99,tws,2013-08-25 10:40:00,
2013-08-25 03:50:00,73.5,67.6,30.02,NE,45,2.0,2.9,81,-99.99,,,-99.99,tws,2013-08-25 10:50:00,
2013-08-25 04:00:00,73.4,67.6,30.02,NW,315,1.1,1.7,81,-99.99,,,-99.99,tws,2013-08-25 11:00:00,
2013-08-25 04:10:00,73.4,67.8,30.03,NW,315,0.4,0.9,82,-99.99,,,-99.99,tws,2013-08-25 11:10:00,
2013-08-25 04:20:00,73.2,67.7,30.03,NW,315,1.2,1.9,82,-99.99,,,-99.99,tws,2013-08-25 11:20:00,
2013-08-25 04:30:00,73.1,67.6,30.02,NW,315,0.9,1.5,82,-99.99,,,-99.99,tws,2013-08-25 11:30:00,
2013-08-25 04:40:00,73.0,67.6,30.01,North,0,0.2,1.0,82,-99.99,,,-99.99,tws,2013-08-25 11:40:00,
2013-08-25 04:50:00,73.0,67.6,30.03,NNW,337,0.0,0.0,83,-99.99,,,-99.99,tws,2013-08-25 11:50:00,
2013-08-25 05:00:00,73.0,67.5,30.02,NW,315,1.2,2.2,82,-99.99,,,-99.99,tws,2013-08-25 12:00:00,
2013-08-25 05:10:00,73.1,67.8,30.02,North,0,1.0,2.0,83,-99.99,,,-99.99,tws,2013-08-25 12:10:00,
2013-08-25 05:20:00,73.2,68.0,30.02,NW,315,1.8,2.7,83,-99.99,,,-99.99,tws,2013-08-25 12:20:00,
2013-08-25 05:30:00,73.2,68.1,30.02,NNW,337,2.5,3.2,83,-99.99,,,-99.99,tws,2013-08-25 12:30:00,
2013-08-25 05:40:00,73.3,68.1,30.03,WNW,292,3.3,4.2,83,-99.99,,,-99.99,tws,2013-08-25 12:40:00,
2013-08-25 05:50:00,73.4,68.2,30.03,NW,315,4.0,4.6,83,-99.99,,,-99.99,tws,2013-08-25 12:50:00,
2013-08-25 06:00:00,73.4,68.1,30.03,WNW,292,4.7,5.6,83,-99.99,,,-99.99,tws,2013-08-25 13:00:00,
2013-08-25 06:10:00,73.4,68.1,30.03,NW,315,3.1,4.4,83,-99.99,,,-99.99,tws,2013-08-25 13:10:00,
2013-08-25 06:20:00,73.4,68.0,30.03,NNE,22,2.6,3.4,83,-99.99,,,-99.99,tws,2013-08-25 13:20:00,
2013-08-25 06:30:00,73.4,68.0,30.04,NE,45,2.5,3.3,83,-99.99,,,-99.99,tws,2013-08-25 13:30:00,
2013-08-25 06:40:00,73.4,68.0,30.04,NNE,22,2.7,3.2,83,-99.99,,,-99.99,tws,2013-08-25 13:40:00,
2013-08-25 06:50:00,73.4,68.0,30.04,North,0,2.3,3.2,82,-99.99,,,-99.99,tws,2013-08-25 13:50:00,
2013-08-25 07:00:00,73.5,67.9,30.05,North,0,1.8,2.4,82,-99.99,,,-99.99,tws,2013-08-25 14:00:00,
2013-08-25 07:10:00,73.6,68.2,30.05,North,0,1.9,3.3,82,-99.99,,,-99.99,tws,2013-08-25 14:10:00,
2013-08-25 07:20:00,74.0,68.3,30.06,East,90,0.9,2.2,82,-99.99,,,-99.99,tws,2013-08-25 14:20:00,
2013-08-25 07:30:00,74.3,68.5,30.05,NE,45,0.0,0.0,82,-99.99,,,-99.99,tws,2013-08-25 14:30:00,
2013-08-25 07:40:00,74.4,68.5,30.05,East,90,0.5,1.9,81,-99.99,,,-99.99,tws,2013-08-25 14:40:00,
2013-08-25 07:50:00,74.5,68.3,30.05,East,90,1.7,2.2,80,-99.99,,,-99.99,tws,2013-08-25 14:50:00,
2013-08-25 08:00:00,74.7,68.2,30.06,SE,135,1.1,2.1,79,-99.99,,,-99.99,tws,2013-08-25 15:00:00,
2013-08-25 08:10:00,74.8,67.7,30.06,SE,135,0.7,1.4,78,-99.99,,,-99.99,tws,2013-08-25 15:10:00,
2013-08-25 08:20:00,75.0,67.7,30.07,ESE,112,1.9,2.8,77,-99.99,,,-99.99,tws,2013-08-25 15:20:00,
2013-08-25 08:30:00,75.2,67.5,30.07,ENE,67,1.9,2.6,76,-99.99,,,-99.99,tws,2013-08-25 15:30:00,
2013-08-25 08:40:00,75.5,67.7,30.07,SE,135,2.1,3.2,76,-99.99,,,-99.99,tws,2013-08-25 15:40:00,
2013-08-25 08:50:00,76.1,67.8,30.07,East,90,1.9,2.9,75,-99.99,,,-99.99,tws,2013-08-25 15:50:00,
2013-08-25 09:00:00,77.0,68.0,30.07,West,270,2.6,3.6,73,-99.99,,,-99.99,tws,2013-08-25 16:00:00,
2013-08-25 09:10:00,77.5,68.0,30.07,South,180,3.8,5.8,72,-99.99,,,-99.99,tws,2013-08-25 16:10:00,
2013-08-25 09:20:00,77.7,67.6,30.07,SW,225,2.4,4.0,70,-99.99,,,-99.99,tws,2013-08-25 16:20:00,
2013-08-25 09:30:00,78.1,68.0,30.07,SW,225,2.5,3.2,70,-99.99,,,-99.99,tws,2013-08-25 16:30:00,
2013-08-25 09:40:00,78.5,67.9,30.07,NW,315,1.8,3.6,69,-99.99,,,-99.99,tws,2013-08-25 16:40:00,
2013-08-25 09:50:00,78.9,67.7,30.07,SW,225,2.0,3.1,68,-99.99,,,-99.99,tws,2013-08-25 16:50:00,
2013-08-25 10:00:00,79.2,67.6,30.06,SW,225,0.3,1.2,67,-99.99,,,-99.99,tws,2013-08-25 17:00:00,
2013-08-25 10:10:00,79.3,67.6,30.07,NW,315,1.7,2.3,66,-99.99,,,-99.99,tws,2013-08-25 17:10:00,
2013-08-25 10:20:00,79.4,67.7,30.07,NW,315,1.6,2.7,66,-99.99,,,-99.99,tws,2013-08-25 17:20:00,
2013-08-25 10:30:00,79.6,67.8,30.06,North,0,0.8,2.2,66,-99.99,,,-99.99,tws,2013-08-25 17:30:00,
2013-08-25 10:40:00,79.9,67.8,30.07,East,90,1.2,2.8,66,-99.99,,,-99.99,tws,2013-08-25 17:40:00,
2013-08-25 10:50:00,80.1,68.1,30.07,NW,315,1.0,2.7,66,-99.99,,,-99.99,tws,2013-08-25 17:50:00,
2013-08-25 11:00:00,80.3,68.3,30.06,NNE,22,2.0,3.0,66,-99.99,,,-99.99,tws,2013-08-25 18:00:00,
2013-08-25 11:10:00,80.7,68.4,30.05,SW,225,1.0,2.3,65,-99.99,,,-99.99,tws,2013-08-25 18:10:00,
2013-08-25 11:20:00,81.4,68.5,30.06,ESE,112,2.4,3.8,64,-99.99,,,-99.99,tws,2013-08-25 18:20:00,
2013-08-25 11:30:00,82.3,68.4,30.05,East,90,1.9,3.4,62,-99.99,,,-99.99,tws,2013-08-25 18:30:00,
2013-08-25 11:40:00,83.2,68.4,30.06,East,90,2.7,4.5,60,-99.99,,,-99.99,tws,2013-08-25 18:40:00,
2013-08-25 11:50:00,84.1,68.7,30.06,SW,225,2.7,3.8,59,-99.99,,,-99.99,tws,2013-08-25 18:50:00,
2013-08-25 12:00:00,84.7,68.2,30.06,SE,135,3.2,4.9,57,-99.99,,,-99.99,tws,2013-08-25 19:00:00,
2013-08-25 12:10:00,85.0,68.2,30.06,SE,135,2.6,3.7,56,-99.99,,,-99.99,tws,2013-08-25 19:10:00,
2013-08-25 12:20:00,85.4,68.9,30.05,NE,45,2.5,4.6,57,-99.99,,,-99.99,tws,2013-08-25 19:20:00,
2013-08-25 12:30:00,86.0,69.0,30.05,SE,135,1.6,2.5,56,-99.99,,,-99.99,tws,2013-08-25 19:30:00,
2013-08-25 12:40:00,86.3,68.5,30.05,NNW,337,2.6,4.0,54,-99.99,,,-99.99,tws,2013-08-25 19:40:00,
2013-08-25 12:50:00,86.7,69.0,30.04,NW,315,2.0,3.1,55,-99.99,,,-99.99,tws,2013-08-25 19:50:00,
2013-08-25 13:00:00,87.3,69.1,30.05,SSW,202,2.3,3.4,54,-99.99,,,-99.99,tws,2013-08-25 20:00:00,
2013-08-25 13:10:00,87.8,68.6,30.03,SW,225,3.9,6.3,52,-99.99,,,-99.99,tws,2013-08-25 20:10:00,
2013-08-25 13:20:00,88.7,68.7,30.03,NW,315,2.9,5.6,51,-99.99,,,-99.99,tws,2013-08-25 20:20:00,
2013-08-25 13:30:00,88.9,68.0,30.02,South,180,5.3,7.8,49,-99.99,,,-99.99,tws,2013-08-25 20:30:00,
2013-08-25 13:40:00,88.7,67.0,30.02,ESE,112,4.1,5.5,48,-99.99,,,-99.99,tws,2013-08-25 20:40:00,
2013-08-25 13:50:00,89.3,68.3,30.01,SW,225,4.3,7.7,49,-99.99,,,-99.99,tws,2013-08-25 20:50:00,
2013-08-25 14:00:00,90.0,67.5,30.00,SW,225,4.0,5.4,46,-99.99,,,-99.99,tws,2013-08-25 21:00:00,
2013-08-25 14:10:00,90.2,67.4,30.00,SW,225,2.9,4.2,46,-99.99,,,-99.99,tws,2013-08-25 21:10:00,
2013-08-25 14:20:00,90.3,66.9,29.98,SW,225,4.4,6.3,45,-99.99,,,-99.99,tws,2013-08-25 21:20:00,
2013-08-25 14:30:00,90.2,66.7,29.98,SE,135,2.8,4.8,45,-99.99,,,-99.99,tws,2013-08-25 21:30:00,
2013-08-25 14:40:00,89.7,66.0,29.98,NW,315,2.3,4.8,44,-99.99,,,-99.99,tws,2013-08-25 21:40:00,
2013-08-25 14:50:00,89.1,66.2,29.98,NE,45,2.3,3.3,46,-99.99,,,-99.99,tws,2013-08-25 21:50:00,
2013-08-25 15:00:00,88.7,66.3,29.98,NW,315,3.6,5.5,46,-99.99,,,-99.99,tws,2013-08-25 22:00:00,
2013-08-25 15:10:00,88.4,65.8,29.98,West,270,3.3,5.0,46,-99.99,,,-99.99,tws,2013-08-25 22:10:00,
2013-08-25 15:20:00,88.0,65.9,29.97,WNW,292,2.4,4.1,47,-99.99,,,-99.99,tws,2013-08-25 22:20:00,
2013-08-25 15:30:00,87.4,66.2,29.96,NNE,22,2.0,2.8,48,-99.99,,,-99.99,tws,2013-08-25 22:30:00,
2013-08-25 15:40:00,86.6,67.2,29.97,East,90,2.9,4.3,51,-99.99,,,-99.99,tws,2013-08-25 22:40:00,
2013-08-25 15:50:00,86.0,67.8,29.97,NE,45,2.7,4.5,54,-99.99,,,-99.99,tws,2013-08-25 22:50:00,
2013-08-25 16:00:00,85.1,68.7,29.97,ESE,112,3.0,3.9,57,-99.99,,,-99.99,tws,2013-08-25 23:00:00,
2013-08-25 16:10:00,83.4,69.0,29.99,South,180,3.5,5.0,61,-99.99,,,-99.99,tws,2013-08-25 23:10:00,
2013-08-25 16:20:00,81.7,68.9,30.01,NW,315,4.2,9.2,64,-99.99,,,-99.99,tws,2013-08-25 23:20:00,
2013-08-25 16:30:00,80.0,69.3,30.00,NW,315,5.6,7.3,69,-99.99,,,-99.99,tws,2013-08-25 23:30:00,
2013-08-25 16:40:00,78.3,69.2,29.99,NW,315,6.2,7.4,73,-99.99,,,-99.99,tws,2013-08-25 23:40:00,
2013-08-25 16:50:00,77.0,69.2,29.99,NW,315,6.8,8.5,76,-99.99,,,-99.99,tws,2013-08-25 23:50:00,
2013-08-25 17:00:00,76.1,69.2,30.01,NNW,337,5.4,10.2,78,-99.99,,,-99.99,tws,2013-08-26 00:00:00,
2013-08-25 17:10:00,75.5,69.3,30.01,NW,315,5.4,6.9,80,-99.99,,,-99.99,tws,2013-08-26 00:10:00,
2013-08-25 17:20:00,75.1,69.2,30.00,NNW,337,6.1,7.1,81,-99.99,,,-99.99,tws,2013-08-26 00:20:00,
2013-08-25 17:30:00,74.7,69.0,30.00,NW,315,6.3,9.2,82,-99.99,,,-99.99,tws,2013-08-26 00:30:00,
2013-08-25 17:40:00,74.6,69.1,30.01,NW,315,7.4,9.4,82,-99.99,,,-99.99,tws,2013-08-26 00:40:00,
2013-08-25 17:50:00,74.8,69.5,30.01,NNW,337,6.2,7.2,83,-99.99,,,-99.99,tws,2013-08-26 00:50:00,
2013-08-25 18:00:00,75.1,69.9,30.00,NW,315,5.4,6.9,83,-99.99,,,-99.99,tws,2013-08-26 01:00:00,
2013-08-25 18:10:00,75.6,69.9,30.00,NW,315,4.9,5.8,82,-99.99,,,-99.99,tws,2013-08-26 01:10:00,
2013-08-25 18:20:00,76.1,70.3,30.00,NW,315,4.6,5.7,81,-99.99,,,-99.99,tws,2013-08-26 01:20:00,
2013-08-25 18:30:00,76.4,70.0,30.00,West,270,6.2,7.7,80,-99.99,,,-99.99,tws,2013-08-26 01:30:00,
2013-08-25 18:40:00,76.7,70.0,30.01,NW,315,5.4,7.3,79,-99.99,,,-99.99,tws,2013-08-26 01:40:00,
2013-08-25 18:50:00,76.8,69.8,30.00,WNW,292,4.7,7.0,78,-99.99,,,-99.99,tws,2013-08-26 01:50:00,
2013-08-25 19:00:00,76.8,69.5,30.01,NW,315,2.3,3.7,78,-99.99,,,-99.99,tws,2013-08-26 02:00:00,
2013-08-25 19:10:00,76.6,69.3,30.01,East,90,2.5,3.2,77,-99.99,,,-99.99,tws,2013-08-26 02:10:00,
2013-08-25 19:20:00,76.5,70.8,30.01,North,0,2.9,4.7,83,-99.99,,,-99.99,tws,2013-08-26 02:20:00,
2013-08-25 19:30:00,76.6,69.2,30.01,North,0,1.4,2.0,77,-99.99,,,-99.99,tws,2013-08-26 02:30:00,
2013-08-25 19:40:00,76.5,69.2,30.01,ENE,67,0.1,0.4,77,-99.99,,,-99.99,tws,2013-08-26 02:40:00,
2013-08-25 19:50:00,76.4,69.0,30.02,North,0,0.0,0.0,77,-99.99,,,-99.99,tws,2013-08-26 02:50:00,
2013-08-25 20:00:00,76.3,69.0,30.03,SW,225,0.9,2.2,77,-99.99,,,-99.99,tws,2013-08-26 03:00:00,
2013-08-25 20:10:00,76.2,68.4,30.03,NW,315,1.8,2.4,76,-99.99,,,-99.99,tws,2013-08-26 03:10:00,
2013-08-25 20:20:00,76.2,68.2,30.03,NW,315,1.4,2.9,75,-99.99,,,-99.99,tws,2013-08-26 03:20:00,
2013-08-25 20:30:00,76.1,67.9,30.03,West,270,2.2,2.6,75,-99.99,,,-99.99,tws,2013-08-26 03:30:00,
2013-08-25 20:40:00,76.1,67.6,30.03,North,0,1.1,1.9,74,-99.99,,,-99.99,tws,2013-08-26 03:40:00,
2013-08-25 20:50:00,76.0,67.6,30.04,NE,45,0.7,1.9,74,-99.99,,,-99.99,tws,2013-08-26 03:50:00,
2013-08-25 21:00:00,76.0,67.4,30.04,ENE,67,1.1,1.5,74,-99.99,,,-99.99,tws,2013-08-26 04:00:00,
2013-08-25 21:10:00,75.9,67.5,30.06,NE,45,1.5,2.2,74,-99.99,,,-99.99,tws,2013-08-26 04:10:00,
2013-08-25 21:20:00,76.0,67.7,30.05,NE,45,1.9,2.3,75,-99.99,,,-99.99,tws,2013-08-26 04:20:00,
2013-08-25 21:30:00,76.0,67.9,30.05,NNW,337,1.9,2.8,75,-99.99,,,-99.99,tws,2013-08-26 04:30:00,
2013-08-25 21:40:00,76.0,68.1,30.05,NNW,337,2.1,2.5,76,-99.99,,,-99.99,tws,2013-08-26 04:40:00,
2013-08-25 21:50:00,76.0,68.3,30.05,NW,315,2.2,2.9,76,-99.99,,,-99.99,tws,2013-08-26 04:50:00,
2013-08-25 22:00:00,75.8,68.3,30.05,NE,45,1.9,2.9,77,-99.99,,,-99.99,tws,2013-08-26 05:00:00,
2013-08-25 22:10:00,75.7,68.3,30.05,North,0,2.2,3.0,77,-99.99,,,-99.99,tws,2013-08-26 05:10:00,
2013-08-25 22:20:00,75.6,68.3,30.05,NW,315,2.2,3.2,77,-99.99,,,-99.99,tws,2013-08-26 05:20:00,
2013-08-25 22:30:00,75.5,68.2,30.03,North,0,2.0,2.9,77,-99.99,,,-99.99,tws,2013-08-26 05:30:00,
2013-08-25 22:40:00,75.3,68.0,30.04,NW,315,2.1,2.5,77,-99.99,,,-99.99,tws,2013-08-26 05:40:00,
2013-08-25 22:50:00,75.0,68.1,30.03,NW,315,3.0,4.0,78,-99.99,,,-99.99,tws,2013-08-26 05:50:00,
2013-08-25 23:00:00,74.9,68.1,30.03,NW,315,3.2,4.1,79,-99.99,,,-99.99,tws,2013-08-26 06:00:00,
2013-08-25 23:10:00,74.7,68.1,30.03,NW,315,2.3,3.0,79,-99.99,,,-99.99,tws,2013-08-26 06:10:00,
2013-08-25 23:20:00,74.6,68.2,30.04,NW,315,2.1,2.6,79,-99.99,,,-99.99,tws,2013-08-26 06:20:00,
2013-08-25 23:30:00,74.6,68.1,30.04,NW,315,3.2,4.4,79,-99.99,,,-99.99,tws,2013-08-26 06:30:00,
2013-08-25 23:40:00,74.5,67.9,30.03,North,0,3.1,3.8,79,-99.99,,,-99.99,tws,2013-08-26 06:40:00,
2013-08-25 23:50:00,74.5,68.0,30.03,NW,315,3.7,5.3,79,-99.99,,,-99.99,tws,2013-08-26 06:50:00,